Weather at Hamid Karzai International Airport

Public forecast

Using degrees Celsius for public forecast. Weather courtesy of forecast.io.

Current aviation weather report (METAR) for Hamid Karzai International Airport

Retrieved 2020/11/25 02:50 UTC (2 hours ago):

OAKB 250250Z VRB02KT 3000 BR FEW005 BKN017 BKN050 02/01 Q1021 RMK A3016 YLO YLO

Aviation forecast (TAF) for Hamid Karzai International Airport

Retrieved 2020-11-25 00:05 UTC (5 hours ago):

TAF OAKB 242305Z 2500/2524 VRB02KT 2000 -RASN BR FEW005 BKN010 OVC020 TEMPO 2501/2505 1200 -SN SCT005 BKN010 OVC015 BECMG 2505/2507 3000 -RA BKN020 OVC030 BECMG 2507/2509 7000 NSW BKN20 BECMG 2512/2514 5000 BR SCT040 BECMG 2514/2516 3000 TEMPO 2516/2520 0800 FZFG